createdAt,value
2023-03-23T00:02:03.000Z,1.2
2023-03-23T00:05:35.000Z,1.1
2023-03-23T00:09:08.000Z,1.2
2023-03-23T00:12:00.000Z,1.2
2023-03-23T00:15:32.000Z,1.2
2023-03-23T00:19:05.000Z,1.4
2023-03-23T00:22:38.000Z,1.1
2023-03-23T00:26:10.000Z,1.1
2023-03-23T00:29:43.000Z,1
2023-03-23T00:33:16.000Z,1.2
2023-03-23T00:36:48.000Z,1.4
2023-03-23T00:40:21.000Z,1
2023-03-23T00:43:53.000Z,1.2
2023-03-23T00:47:26.000Z,1.1
2023-03-23T00:50:17.000Z,1.3
2023-03-23T00:54:03.000Z,1.1
2023-03-23T00:57:36.000Z,1.1
2023-03-23T01:01:09.000Z,1.5
2023-03-23T01:04:41.000Z,1.2
2023-03-23T01:08:14.000Z,1.1
2023-03-23T01:11:46.000Z,1.2
2023-03-23T01:15:19.000Z,1.3
2023-03-23T01:18:52.000Z,1.1
2023-03-23T01:22:24.000Z,1
2023-03-23T01:25:57.000Z,1.2
2023-03-23T01:28:49.000Z,1.4
2023-03-23T01:32:22.000Z,1.1
2023-03-23T01:35:55.000Z,1.3
2023-03-23T01:39:27.000Z,1.2
2023-03-23T01:43:00.000Z,1.4
2023-03-23T01:46:33.000Z,1.1
2023-03-23T01:50:06.000Z,1.1
2023-03-23T01:53:40.000Z,1.4
2023-03-23T01:57:13.000Z,1.3
2023-03-23T02:00:50.000Z,1.2
2023-03-23T02:04:22.000Z,1.3
2023-03-23T02:07:13.000Z,1.1
2023-03-23T02:10:46.000Z,1.1
2023-03-23T02:14:19.000Z,1.4
2023-03-23T02:17:51.000Z,1.3
2023-03-23T02:21:25.000Z,1.4
2023-03-23T02:24:57.000Z,1.2
2023-03-23T02:28:30.000Z,1.2
2023-03-23T02:32:03.000Z,1.4
2023-03-23T02:35:35.000Z,1.4
2023-03-23T02:39:09.000Z,1.2
2023-03-23T02:42:41.000Z,1.6
2023-03-23T02:45:33.000Z,1.4
2023-03-23T02:49:06.000Z,1.2
2023-03-23T02:52:39.000Z,1.2
2023-03-23T02:56:12.000Z,1.2
2023-03-23T02:59:44.000Z,1.4
2023-03-23T03:03:17.000Z,1.2
2023-03-23T03:06:51.000Z,1.4
2023-03-23T03:10:24.000Z,1.3
2023-03-23T03:13:57.000Z,1.4
2023-03-23T03:17:30.000Z,1.2
2023-03-23T03:21:02.000Z,1.4
2023-03-23T03:23:54.000Z,1.4
2023-03-23T03:27:27.000Z,1.4
2023-03-23T03:31:00.000Z,1.3
2023-03-23T03:34:33.000Z,1.3
2023-03-23T03:38:05.000Z,1.4
2023-03-23T03:41:38.000Z,1.4
2023-03-23T03:45:11.000Z,1.4
2023-03-23T03:48:44.000Z,1.4
2023-03-23T03:52:16.000Z,1.5
2023-03-23T03:55:49.000Z,1.4
2023-03-23T03:59:22.000Z,1.5
2023-03-23T04:02:14.000Z,1.3
2023-03-23T04:05:47.000Z,1.4
2023-03-23T04:09:24.000Z,1.6
2023-03-23T04:12:57.000Z,1.6
2023-03-23T04:16:29.000Z,1.7
2023-03-23T04:20:02.000Z,1.6
2023-03-23T04:23:35.000Z,1.8
2023-03-23T04:27:08.000Z,1.8
2023-03-23T04:30:41.000Z,1.9
2023-03-23T04:34:16.000Z,1.8
2023-03-23T04:37:49.000Z,1.9
2023-03-23T04:40:40.000Z,1.7
2023-03-23T04:44:12.000Z,2.1
2023-03-23T04:47:45.000Z,2.2
2023-03-23T04:51:19.000Z,1.9
2023-03-23T04:54:52.000Z,2.2
2023-03-23T04:58:25.000Z,2.2
2023-03-23T05:01:57.000Z,2.3
2023-03-23T05:05:40.000Z,2.4
2023-03-23T05:09:12.000Z,2.5
2023-03-23T05:12:45.000Z,2.2
2023-03-23T05:16:18.000Z,2.3
2023-03-23T05:19:09.000Z,2.2
2023-03-23T05:22:41.000Z,2.2
2023-03-23T05:26:14.000Z,1.6
2023-03-23T05:29:47.000Z,2.5
2023-03-23T05:33:19.000Z,2.3
2023-03-23T05:36:52.000Z,2.3
2023-03-23T05:40:24.000Z,2.3
2023-03-23T05:43:57.000Z,2.4
2023-03-23T05:47:30.000Z,2.2
2023-03-23T05:51:02.000Z,2.5
2023-03-23T05:54:35.000Z,2.2
2023-03-23T05:57:26.000Z,2.6
2023-03-23T06:00:59.000Z,2.2
2023-03-23T06:04:31.000Z,2.5
2023-03-23T06:08:04.000Z,2.9
2023-03-23T06:11:37.000Z,2.7
2023-03-23T06:15:09.000Z,2.7
2023-03-23T06:18:42.000Z,2.8
2023-03-23T06:22:14.000Z,2.8
2023-03-23T06:25:47.000Z,2.9
2023-03-23T06:29:29.000Z,2.6
2023-03-23T06:33:02.000Z,2.7
2023-03-23T06:35:53.000Z,2.6
2023-03-23T06:39:26.000Z,2.7
2023-03-23T06:43:02.000Z,2.9
2023-03-23T06:46:35.000Z,2.6
2023-03-23T06:50:08.000Z,2.8
2023-03-23T06:53:40.000Z,2.8
2023-03-23T06:57:13.000Z,2.8
2023-03-23T07:00:45.000Z,2.7
2023-03-23T07:04:18.000Z,2.5
2023-03-23T07:07:51.000Z,3.3
2023-03-23T07:11:39.000Z,3.2
2023-03-23T07:14:31.000Z,3.1
2023-03-23T07:18:03.000Z,3
2023-03-23T07:21:36.000Z,3.4
2023-03-23T07:25:08.000Z,3
2023-03-23T07:28:41.000Z,3.1
2023-03-23T07:32:14.000Z,3.1
2023-03-23T07:35:46.000Z,3
2023-03-23T07:39:19.000Z,3
2023-03-23T07:42:52.000Z,3.3
2023-03-23T07:46:25.000Z,3.2
2023-03-23T07:49:58.000Z,3
2023-03-23T07:52:49.000Z,3.3
2023-03-23T07:56:22.000Z,3.2
2023-03-23T07:59:54.000Z,3.9
2023-03-23T08:03:27.000Z,3.5
2023-03-23T08:07:00.000Z,3.5
2023-03-23T08:10:32.000Z,3.3
2023-03-23T08:14:13.000Z,3.2
2023-03-23T08:17:47.000Z,3.4
2023-03-23T08:21:19.000Z,3.2
2023-03-23T08:24:52.000Z,3.5
2023-03-23T08:28:25.000Z,3.4
2023-03-23T08:31:17.000Z,3.6
2023-03-23T08:34:50.000Z,3.5
2023-03-23T08:38:23.000Z,3.4
2023-03-23T08:41:56.000Z,3.3
2023-03-23T08:45:28.000Z,3
2023-03-23T08:49:01.000Z,3.3
2023-03-23T08:52:33.000Z,3
2023-03-23T08:56:06.000Z,3.7
2023-03-23T08:59:39.000Z,3.3
2023-03-23T09:03:11.000Z,3.4
2023-03-23T09:06:44.000Z,3.6
2023-03-23T09:09:35.000Z,3.2
2023-03-23T09:13:12.000Z,3
2023-03-23T09:16:45.000Z,3.4
2023-03-23T09:20:17.000Z,3.7
2023-03-23T09:23:50.000Z,3.5
2023-03-23T09:27:22.000Z,3.6
2023-03-23T09:30:55.000Z,3.9
2023-03-23T09:34:28.000Z,4
2023-03-23T09:38:00.000Z,3.9
2023-03-23T09:41:33.000Z,4
2023-03-23T09:45:06.000Z,4
2023-03-23T09:47:57.000Z,3.9
2023-03-23T09:51:40.000Z,3.9
2023-03-23T09:55:13.000Z,3.7
2023-03-23T09:58:45.000Z,3.5
2023-03-23T10:02:18.000Z,4.2
2023-03-23T10:05:51.000Z,3.5
2023-03-23T10:09:23.000Z,4
2023-03-23T10:12:56.000Z,4.1
2023-03-23T10:16:29.000Z,3.9
2023-03-23T10:20:01.000Z,3.6
2023-03-23T10:23:34.000Z,4.1
2023-03-23T10:26:25.000Z,3.9
2023-03-23T10:29:58.000Z,3.7
2023-03-23T10:33:30.000Z,3.7
2023-03-23T10:37:03.000Z,4.1
2023-03-23T10:40:36.000Z,3.7
2023-03-23T10:44:08.000Z,3.8
2023-03-23T10:47:58.000Z,3.4
2023-03-23T10:51:31.000Z,4.2
2023-03-23T10:55:05.000Z,3.7
2023-03-23T10:58:57.000Z,3.5
2023-03-23T11:02:29.000Z,3.5
2023-03-23T11:05:20.000Z,3.6
2023-03-23T11:08:53.000Z,3.8
2023-03-23T11:12:25.000Z,3.5
2023-03-23T11:15:58.000Z,3.5
2023-03-23T11:19:30.000Z,3.6
2023-03-23T11:23:03.000Z,3.6
2023-03-23T11:26:36.000Z,3.7
2023-03-23T11:30:23.000Z,3
2023-03-23T11:33:56.000Z,3.1
2023-03-23T11:37:31.000Z,3.1
2023-03-23T11:41:04.000Z,3.6
2023-03-23T11:43:55.000Z,3.1
2023-03-23T11:47:28.000Z,2.9
2023-03-23T11:51:02.000Z,3.1
2023-03-23T11:54:35.000Z,2.8
2023-03-23T11:58:08.000Z,2.9
2023-03-23T12:01:40.000Z,2.8
2023-03-23T12:05:13.000Z,2.6
2023-03-23T12:08:45.000Z,2.4
2023-03-23T12:12:34.000Z,2.4
2023-03-23T12:16:06.000Z,2.7
2023-03-23T12:19:39.000Z,2.8
2023-03-23T12:22:30.000Z,2.2
2023-03-23T12:26:05.000Z,1.9
2023-03-23T12:29:37.000Z,2
2023-03-23T12:33:10.000Z,2
2023-03-23T12:36:42.000Z,1.8
2023-03-23T12:40:15.000Z,1.8
2023-03-23T12:43:48.000Z,1.9
2023-03-23T12:47:20.000Z,1.9
2023-03-23T12:50:53.000Z,2
2023-03-23T12:54:25.000Z,2.1
2023-03-23T12:57:58.000Z,2
2023-03-23T13:00:49.000Z,2
2023-03-23T13:04:22.000Z,2.1
2023-03-23T13:07:55.000Z,2.4
2023-03-23T13:11:27.000Z,2.4
2023-03-23T13:15:00.000Z,2.6
2023-03-23T13:18:33.000Z,2.5
2023-03-23T13:22:05.000Z,2.6
2023-03-23T13:25:38.000Z,2.7
2023-03-23T13:29:10.000Z,2.2
2023-03-23T13:32:43.000Z,2
2023-03-23T13:36:22.000Z,2.5
2023-03-23T13:39:13.000Z,1.9
2023-03-23T13:42:46.000Z,2
2023-03-23T13:46:19.000Z,1.7
2023-03-23T13:49:51.000Z,1.9
2023-03-23T13:53:24.000Z,1.5
2023-03-23T13:56:57.000Z,1.7
2023-03-23T14:00:29.000Z,1.7
2023-03-23T14:04:02.000Z,1.6
2023-03-23T14:07:34.000Z,1.7
2023-03-23T14:11:07.000Z,1.5
2023-03-23T14:14:40.000Z,1.6
2023-03-23T14:17:31.000Z,1.6
2023-03-23T14:21:03.000Z,1.6
2023-03-23T14:24:37.000Z,1.8
2023-03-23T14:28:09.000Z,1.6
2023-03-23T14:31:42.000Z,1.5
2023-03-23T14:35:15.000Z,1.4
2023-03-23T14:38:47.000Z,1.9
2023-03-23T14:42:20.000Z,1.7
2023-03-23T14:45:53.000Z,1.6
2023-03-23T14:49:25.000Z,1.6
2023-03-23T14:52:58.000Z,1.5
2023-03-23T14:55:49.000Z,1.5
2023-03-23T14:59:22.000Z,1.6
2023-03-23T15:02:55.000Z,1.4
2023-03-23T15:06:27.000Z,1.3
2023-03-23T15:10:00.000Z,1.3
2023-03-23T15:13:33.000Z,1.6
2023-03-23T15:17:05.000Z,2.1
2023-03-23T15:20:38.000Z,1.8
2023-03-23T15:24:10.000Z,1.4
2023-03-23T15:27:43.000Z,1.4
2023-03-23T15:31:25.000Z,1.5
2023-03-23T15:34:16.000Z,1.4
2023-03-23T15:37:49.000Z,1.4
2023-03-23T15:41:28.000Z,1.6
2023-03-23T15:45:01.000Z,1.4
2023-03-23T15:48:34.000Z,1.4
2023-03-23T15:52:06.000Z,1.5
2023-03-23T15:55:39.000Z,1.4
2023-03-23T15:59:11.000Z,1.5
2023-03-23T16:02:44.000Z,1.5
2023-03-23T16:06:17.000Z,1.5
2023-03-23T16:09:51.000Z,1.6
2023-03-23T16:12:42.000Z,1.7
2023-03-23T16:16:14.000Z,1.5
2023-03-23T16:19:47.000Z,1.6
2023-03-23T16:23:20.000Z,1.4
2023-03-23T16:26:52.000Z,1.4
2023-03-23T16:30:25.000Z,1.3
2023-03-23T16:33:58.000Z,1.7
2023-03-23T16:37:30.000Z,1.3
2023-03-23T16:41:03.000Z,1.5
2023-03-23T16:44:36.000Z,1.4
2023-03-23T16:48:08.000Z,1.4
2023-03-23T16:51:00.000Z,1.7
2023-03-23T16:54:32.000Z,1.7
2023-03-23T16:58:05.000Z,1.7
2023-03-23T17:01:43.000Z,2
2023-03-23T17:05:16.000Z,1.9
2023-03-23T17:08:48.000Z,1.6
2023-03-23T17:12:21.000Z,1.7
2023-03-23T17:15:54.000Z,1.7
2023-03-23T17:19:26.000Z,1.7
2023-03-23T17:22:59.000Z,1.6
2023-03-23T17:26:32.000Z,1.4
2023-03-23T17:29:23.000Z,1.5
2023-03-23T17:32:56.000Z,1.5
2023-03-23T17:36:28.000Z,1.6
2023-03-23T17:40:01.000Z,1.4
2023-03-23T17:43:34.000Z,1.8
2023-03-23T17:47:06.000Z,1.7
2023-03-23T17:50:39.000Z,1.7
2023-03-23T17:54:12.000Z,1.7
2023-03-23T17:57:44.000Z,1.9
2023-03-23T18:01:17.000Z,1.8
2023-03-23T18:04:50.000Z,1.8
2023-03-23T18:07:41.000Z,2.6
2023-03-23T18:11:14.000Z,3.7
2023-03-23T18:14:46.000Z,2.5
2023-03-23T18:18:19.000Z,2.8
2023-03-23T18:21:52.000Z,1.6
2023-03-23T18:25:24.000Z,1.6
2023-03-23T18:28:57.000Z,2
2023-03-23T18:32:29.000Z,2.2
2023-03-23T18:36:02.000Z,1.9
2023-03-23T18:39:35.000Z,2.3
2023-03-23T18:43:08.000Z,2.3
2023-03-23T18:45:59.000Z,2.9
2023-03-23T18:49:31.000Z,2.5
2023-03-23T18:53:04.000Z,2.3
2023-03-23T18:56:37.000Z,3.5
2023-03-23T19:00:09.000Z,2.3
2023-03-23T19:03:42.000Z,2.3
2023-03-23T19:07:15.000Z,2.5
2023-03-23T19:10:48.000Z,2.5
2023-03-23T19:14:20.000Z,2.4
2023-03-23T19:17:53.000Z,2.3
2023-03-23T19:21:26.000Z,2.4
2023-03-23T19:24:17.000Z,2.3
2023-03-23T19:27:50.000Z,2.9
2023-03-23T19:32:28.000Z,1.8
2023-03-23T19:36:01.000Z,2.1
2023-03-23T19:39:38.000Z,2.3
2023-03-23T19:43:11.000Z,2.5
2023-03-23T19:46:44.000Z,2.3
2023-03-23T19:50:16.000Z,2.2
2023-03-23T19:57:40.000Z,2.3
2023-03-23T20:01:13.000Z,2.6
2023-03-23T20:04:04.000Z,2.3
2023-03-23T20:07:37.000Z,2.4
2023-03-23T20:11:17.000Z,2.4
2023-03-23T20:14:49.000Z,2.5
2023-03-23T20:18:22.000Z,2.3
2023-03-23T20:21:55.000Z,2.9
2023-03-23T20:25:28.000Z,2.8
2023-03-23T20:29:01.000Z,2.8
2023-03-23T20:32:35.000Z,2.4
2023-03-23T20:36:08.000Z,2.4
2023-03-23T20:39:40.000Z,2.5
2023-03-23T20:42:31.000Z,2.4
2023-03-23T20:46:04.000Z,2.7
2023-03-23T20:49:37.000Z,2.5
2023-03-23T20:53:19.000Z,2.2
2023-03-23T20:56:51.000Z,2.6
2023-03-23T21:00:24.000Z,2.6
2023-03-23T21:03:57.000Z,2.3
2023-03-23T21:07:29.000Z,2.4
2023-03-23T21:11:02.000Z,2.4
2023-03-23T21:14:35.000Z,2.7
2023-03-23T21:18:08.000Z,2.6
2023-03-23T21:20:59.000Z,2.4
2023-03-23T21:24:34.000Z,2.8
2023-03-23T21:28:07.000Z,2.8
2023-03-23T21:31:39.000Z,2.6
2023-03-23T21:35:22.000Z,2.5
2023-03-23T21:38:55.000Z,2.7
2023-03-23T21:42:27.000Z,3
2023-03-23T21:46:00.000Z,3.1
2023-03-23T21:49:33.000Z,3.6
2023-03-23T21:53:06.000Z,3.1
2023-03-23T21:56:39.000Z,3.1
2023-03-23T21:59:30.000Z,3.2
2023-03-23T22:03:03.000Z,3.1
2023-03-23T22:06:35.000Z,3.7
2023-03-23T22:10:08.000Z,4
2023-03-23T22:13:41.000Z,4.3
2023-03-23T22:17:13.000Z,4
2023-03-23T22:20:46.000Z,4.1
2023-03-23T22:24:18.000Z,4.3
2023-03-23T22:27:51.000Z,4.7
2023-03-23T22:31:24.000Z,5.1
2023-03-23T22:34:56.000Z,5
2023-03-23T22:37:47.000Z,4.7
2023-03-23T22:41:20.000Z,5.4
2023-03-23T22:44:53.000Z,5.3
2023-03-23T22:48:25.000Z,5.2
2023-03-23T22:51:58.000Z,5.2
2023-03-23T22:55:31.000Z,4.7
2023-03-23T22:59:03.000Z,5.2
2023-03-23T23:02:36.000Z,5.6
2023-03-23T23:06:09.000Z,5.7
2023-03-23T23:09:41.000Z,4.9
2023-03-23T23:13:14.000Z,5.2
2023-03-23T23:16:05.000Z,5.3
2023-03-23T23:19:38.000Z,5.1
2023-03-23T23:23:10.000Z,4.8
2023-03-23T23:26:43.000Z,5.4
2023-03-23T23:30:16.000Z,5.5
2023-03-23T23:33:48.000Z,5.5
2023-03-23T23:37:21.000Z,5.6
2023-03-23T23:40:54.000Z,5.4
2023-03-23T23:44:26.000Z,5.8
2023-03-23T23:47:59.000Z,5.8
2023-03-23T23:51:32.000Z,6
2023-03-23T23:54:23.000Z,5.6
2023-03-23T23:57:56.000Z,5.5
